sensor_id;sensor_type;location;lat;lon;timestamp;P1;durP1;ratioP1;P2;durP2;ratioP2
1569;SDS011;778;50.120;8.698;2023-02-28T00:01:34;3.57;;;3.27;;
1569;SDS011;778;50.120;8.698;2023-02-28T00:04:03;4.33;;;3.93;;
1569;SDS011;778;50.120;8.698;2023-02-28T00:06:32;4.43;;;3.40;;
1569;SDS011;778;50.120;8.698;2023-02-28T00:09:00;4.43;;;3.90;;
1569;SDS011;778;50.120;8.698;2023-02-28T00:11:29;5.90;;;3.80;;
1569;SDS011;778;50.120;8.698;2023-02-28T00:13:58;3.40;;;3.10;;
1569;SDS011;778;50.120;8.698;2023-02-28T00:16:26;3.90;;;3.50;;
1569;SDS011;778;50.120;8.698;2023-02-28T00:18:55;4.13;;;3.80;;
1569;SDS011;778;50.120;8.698;2023-02-28T00:21:25;5.63;;;3.87;;
1569;SDS011;778;50.120;8.698;2023-02-28T00:23:54;7.87;;;4.03;;
1569;SDS011;778;50.120;8.698;2023-02-28T00:26:22;4.90;;;4.50;;
1569;SDS011;778;50.120;8.698;2023-02-28T00:28:51;4.23;;;3.83;;
1569;SDS011;778;50.120;8.698;2023-02-28T00:31:21;4.40;;;4.10;;
1569;SDS011;778;50.120;8.698;2023-02-28T00:33:50;4.70;;;4.20;;
1569;SDS011;778;50.120;8.698;2023-02-28T00:36:19;4.40;;;4.07;;
1569;SDS011;778;50.120;8.698;2023-02-28T00:38:49;4.73;;;4.33;;
1569;SDS011;778;50.120;8.698;2023-02-28T00:41:18;5.20;;;4.30;;
1569;SDS011;778;50.120;8.698;2023-02-28T00:43:46;4.63;;;4.27;;
1569;SDS011;778;50.120;8.698;2023-02-28T00:46:15;4.87;;;4.47;;
1569;SDS011;778;50.120;8.698;2023-02-28T00:48:43;6.73;;;4.53;;
1569;SDS011;778;50.120;8.698;2023-02-28T00:51:13;6.97;;;5.00;;
1569;SDS011;778;50.120;8.698;2023-02-28T00:53:42;4.93;;;4.53;;
1569;SDS011;778;50.120;8.698;2023-02-28T00:56:12;4.63;;;4.13;;
1569;SDS011;778;50.120;8.698;2023-02-28T00:58:40;4.53;;;4.10;;
1569;SDS011;778;50.120;8.698;2023-02-28T01:01:09;5.07;;;4.60;;
1569;SDS011;778;50.120;8.698;2023-02-28T01:03:37;5.10;;;4.50;;
1569;SDS011;778;50.120;8.698;2023-02-28T01:06:06;4.90;;;4.50;;
1569;SDS011;778;50.120;8.698;2023-02-28T01:08:34;4.50;;;4.20;;
1569;SDS011;778;50.120;8.698;2023-02-28T01:11:09;6.70;;;5.10;;
1569;SDS011;778;50.120;8.698;2023-02-28T01:13:40;4.93;;;4.50;;
1569;SDS011;778;50.120;8.698;2023-02-28T01:16:11;5.20;;;4.70;;
1569;SDS011;778;50.120;8.698;2023-02-28T01:18:40;6.30;;;4.23;;
1569;SDS011;778;50.120;8.698;2023-02-28T01:21:10;5.57;;;5.07;;
1569;SDS011;778;50.120;8.698;2023-02-28T01:23:41;5.07;;;4.70;;
1569;SDS011;778;50.120;8.698;2023-02-28T01:26:10;7.10;;;4.40;;
1569;SDS011;778;50.120;8.698;2023-02-28T01:28:42;4.90;;;4.50;;
1569;SDS011;778;50.120;8.698;2023-02-28T01:31:11;5.93;;;5.30;;
1569;SDS011;778;50.120;8.698;2023-02-28T01:33:40;6.47;;;5.87;;
1569;SDS011;778;50.120;8.698;2023-02-28T01:36:09;6.57;;;5.43;;
1569;SDS011;778;50.120;8.698;2023-02-28T01:38:41;6.40;;;5.90;;
1569;SDS011;778;50.120;8.698;2023-02-28T01:41:12;4.90;;;4.50;;
1569;SDS011;778;50.120;8.698;2023-02-28T01:43:55;5.13;;;4.73;;
1569;SDS011;778;50.120;8.698;2023-02-28T01:46:33;4.80;;;4.30;;
1569;SDS011;778;50.120;8.698;2023-02-28T01:49:05;5.27;;;4.77;;
1569;SDS011;778;50.120;8.698;2023-02-28T01:51:37;4.77;;;4.37;;
1569;SDS011;778;50.120;8.698;2023-02-28T01:54:13;5.50;;;4.50;;
1569;SDS011;778;50.120;8.698;2023-02-28T01:56:47;5.33;;;4.77;;
1569;SDS011;778;50.120;8.698;2023-02-28T01:59:22;4.63;;;4.23;;
1569;SDS011;778;50.120;8.698;2023-02-28T02:01:55;4.90;;;4.50;;
1569;SDS011;778;50.120;8.698;2023-02-28T02:04:23;4.93;;;4.53;;
1569;SDS011;778;50.120;8.698;2023-02-28T02:07:02;5.23;;;4.30;;
1569;SDS011;778;50.120;8.698;2023-02-28T02:09:30;4.67;;;4.27;;
1569;SDS011;778;50.120;8.698;2023-02-28T02:12:00;5.43;;;4.20;;
1569;SDS011;778;50.120;8.698;2023-02-28T02:14:43;4.50;;;4.10;;
1569;SDS011;778;50.120;8.698;2023-02-28T02:17:27;4.23;;;3.83;;
1569;SDS011;778;50.120;8.698;2023-02-28T02:23:10;5.10;;;4.70;;
1569;SDS011;778;50.120;8.698;2023-02-28T02:26:24;5.40;;;4.27;;
1569;SDS011;778;50.120;8.698;2023-02-28T02:32:30;4.27;;;3.90;;
1569;SDS011;778;50.120;8.698;2023-02-28T02:35:36;3.87;;;3.57;;
1569;SDS011;778;50.120;8.698;2023-02-28T02:38:14;4.00;;;3.70;;
1569;SDS011;778;50.120;8.698;2023-02-28T02:40:58;4.23;;;3.80;;
1569;SDS011;778;50.120;8.698;2023-02-28T02:43:34;4.90;;;4.40;;
1569;SDS011;778;50.120;8.698;2023-02-28T02:46:10;4.50;;;4.10;;
1569;SDS011;778;50.120;8.698;2023-02-28T02:48:43;4.50;;;4.10;;
1569;SDS011;778;50.120;8.698;2023-02-28T02:51:15;4.60;;;4.17;;
1569;SDS011;778;50.120;8.698;2023-02-28T02:53:48;4.27;;;3.87;;
1569;SDS011;778;50.120;8.698;2023-02-28T02:56:20;4.17;;;3.80;;
1569;SDS011;778;50.120;8.698;2023-02-28T02:58:54;4.30;;;3.90;;
1569;SDS011;778;50.120;8.698;2023-02-28T03:01:29;4.67;;;4.27;;
1569;SDS011;778;50.120;8.698;2023-02-28T03:03:59;4.20;;;3.80;;
1569;SDS011;778;50.120;8.698;2023-02-28T03:06:31;5.93;;;4.23;;
1569;SDS011;778;50.120;8.698;2023-02-28T03:09:01;4.03;;;3.63;;
1569;SDS011;778;50.120;8.698;2023-02-28T03:11:31;5.00;;;4.30;;
1569;SDS011;778;50.120;8.698;2023-02-28T03:14:18;4.50;;;4.07;;
1569;SDS011;778;50.120;8.698;2023-02-28T03:17:02;4.33;;;3.93;;
1569;SDS011;778;50.120;8.698;2023-02-28T03:20:24;5.83;;;4.17;;
1569;SDS011;778;50.120;8.698;2023-02-28T03:23:09;3.87;;;3.60;;
1569;SDS011;778;50.120;8.698;2023-02-28T03:25:49;5.03;;;4.30;;
1569;SDS011;778;50.120;8.698;2023-02-28T03:28:27;4.17;;;3.60;;
1569;SDS011;778;50.120;8.698;2023-02-28T03:31:10;3.37;;;3.10;;
1569;SDS011;778;50.120;8.698;2023-02-28T03:33:44;4.07;;;3.77;;
1569;SDS011;778;50.120;8.698;2023-02-28T03:36:21;5.60;;;5.07;;
1569;SDS011;778;50.120;8.698;2023-02-28T03:38:56;4.80;;;4.30;;
1569;SDS011;778;50.120;8.698;2023-02-28T03:41:31;6.20;;;4.63;;
1569;SDS011;778;50.120;8.698;2023-02-28T03:44:06;4.70;;;4.30;;
1569;SDS011;778;50.120;8.698;2023-02-28T03:46:42;5.00;;;4.40;;
1569;SDS011;778;50.120;8.698;2023-02-28T03:49:16;3.70;;;3.40;;
1569;SDS011;778;50.120;8.698;2023-02-28T03:51:50;4.40;;;4.00;;
1569;SDS011;778;50.120;8.698;2023-02-28T03:54:23;4.80;;;3.70;;
1569;SDS011;778;50.120;8.698;2023-02-28T03:56:57;4.17;;;3.77;;
1569;SDS011;778;50.120;8.698;2023-02-28T03:59:32;4.10;;;3.80;;
1569;SDS011;778;50.120;8.698;2023-02-28T04:02:05;3.53;;;3.23;;
1569;SDS011;778;50.120;8.698;2023-02-28T04:04:35;7.00;;;4.00;;
1569;SDS011;778;50.120;8.698;2023-02-28T04:07:05;3.60;;;3.20;;
1569;SDS011;778;50.120;8.698;2023-02-28T04:09:37;3.87;;;3.43;;
1569;SDS011;778;50.120;8.698;2023-02-28T04:12:06;4.50;;;4.20;;
1569;SDS011;778;50.120;8.698;2023-02-28T04:14:36;4.03;;;3.47;;
1569;SDS011;778;50.120;8.698;2023-02-28T04:17:04;4.60;;;4.20;;
1569;SDS011;778;50.120;8.698;2023-02-28T04:19:32;4.77;;;4.37;;
1569;SDS011;778;50.120;8.698;2023-02-28T04:22:01;3.80;;;3.50;;
1569;SDS011;778;50.120;8.698;2023-02-28T04:24:29;4.40;;;3.93;;
1569;SDS011;778;50.120;8.698;2023-02-28T04:26:59;6.20;;;4.60;;
1569;SDS011;778;50.120;8.698;2023-02-28T04:29:28;7.30;;;5.13;;
1569;SDS011;778;50.120;8.698;2023-02-28T04:31:59;4.90;;;4.40;;
1569;SDS011;778;50.120;8.698;2023-02-28T04:34:30;5.20;;;4.40;;
1569;SDS011;778;50.120;8.698;2023-02-28T04:36:59;6.13;;;3.87;;
1569;SDS011;778;50.120;8.698;2023-02-28T04:39:39;5.40;;;4.10;;
1569;SDS011;778;50.120;8.698;2023-02-28T04:42:10;5.40;;;4.00;;
1569;SDS011;778;50.120;8.698;2023-02-28T04:44:39;4.00;;;3.70;;
1569;SDS011;778;50.120;8.698;2023-02-28T04:47:08;5.37;;;4.20;;
1569;SDS011;778;50.120;8.698;2023-02-28T04:49:36;4.23;;;3.83;;
1569;SDS011;778;50.120;8.698;2023-02-28T04:52:05;3.57;;;3.27;;
1569;SDS011;778;50.120;8.698;2023-02-28T04:54:34;3.63;;;3.37;;
1569;SDS011;778;50.120;8.698;2023-02-28T04:57:02;5.33;;;3.97;;
1569;SDS011;778;50.120;8.698;2023-02-28T04:59:32;4.43;;;3.60;;
1569;SDS011;778;50.120;8.698;2023-02-28T05:02:00;6.60;;;3.63;;
1569;SDS011;778;50.120;8.698;2023-02-28T05:04:33;5.73;;;3.77;;
1569;SDS011;778;50.120;8.698;2023-02-28T05:07:02;5.93;;;3.90;;
1569;SDS011;778;50.120;8.698;2023-02-28T05:09:31;4.30;;;3.90;;
1569;SDS011;778;50.120;8.698;2023-02-28T05:12:00;4.40;;;4.00;;
1569;SDS011;778;50.120;8.698;2023-02-28T05:14:29;4.60;;;3.30;;
1569;SDS011;778;50.120;8.698;2023-02-28T05:16:59;4.23;;;3.33;;
1569;SDS011;778;50.120;8.698;2023-02-28T05:19:27;3.50;;;3.20;;
1569;SDS011;778;50.120;8.698;2023-02-28T05:21:56;9.40;;;4.57;;
1569;SDS011;778;50.120;8.698;2023-02-28T05:24:24;4.40;;;3.10;;
1569;SDS011;778;50.120;8.698;2023-02-28T05:26:53;5.53;;;3.60;;
1569;SDS011;778;50.120;8.698;2023-02-28T05:29:22;3.87;;;3.47;;
1569;SDS011;778;50.120;8.698;2023-02-28T05:31:52;4.33;;;3.67;;
1569;SDS011;778;50.120;8.698;2023-02-28T05:34:21;4.70;;;2.90;;
1569;SDS011;778;50.120;8.698;2023-02-28T05:36:49;3.23;;;2.73;;
1569;SDS011;778;50.120;8.698;2023-02-28T05:39:17;4.63;;;3.67;;
1569;SDS011;778;50.120;8.698;2023-02-28T05:41:46;3.43;;;3.23;;
1569;SDS011;778;50.120;8.698;2023-02-28T05:44:14;4.00;;;3.60;;
1569;SDS011;778;50.120;8.698;2023-02-28T05:46:43;4.03;;;3.63;;
1569;SDS011;778;50.120;8.698;2023-02-28T05:49:13;5.10;;;4.00;;
1569;SDS011;778;50.120;8.698;2023-02-28T05:51:41;4.20;;;3.53;;
1569;SDS011;778;50.120;8.698;2023-02-28T05:54:10;8.17;;;3.80;;
1569;SDS011;778;50.120;8.698;2023-02-28T05:56:39;4.80;;;3.33;;
1569;SDS011;778;50.120;8.698;2023-02-28T05:59:10;6.60;;;2.90;;
1569;SDS011;778;50.120;8.698;2023-02-28T06:01:39;2.93;;;2.73;;
1569;SDS011;778;50.120;8.698;2023-02-28T06:04:16;7.10;;;3.50;;
1569;SDS011;778;50.120;8.698;2023-02-28T06:06:57;4.00;;;3.40;;
1569;SDS011;778;50.120;8.698;2023-02-28T06:09:26;8.10;;;4.00;;
1569;SDS011;778;50.120;8.698;2023-02-28T06:11:57;4.90;;;3.33;;
1569;SDS011;778;50.120;8.698;2023-02-28T06:14:26;5.03;;;4.20;;
1569;SDS011;778;50.120;8.698;2023-02-28T06:16:54;4.57;;;4.10;;
1569;SDS011;778;50.120;8.698;2023-02-28T06:19:26;5.97;;;5.03;;
1569;SDS011;778;50.120;8.698;2023-02-28T06:21:55;6.43;;;4.20;;
1569;SDS011;778;50.120;8.698;2023-02-28T06:24:26;4.73;;;4.33;;
1569;SDS011;778;50.120;8.698;2023-02-28T06:26:55;8.00;;;5.17;;
1569;SDS011;778;50.120;8.698;2023-02-28T06:29:25;14.70;;;5.27;;
1569;SDS011;778;50.120;8.698;2023-02-28T06:31:53;3.60;;;3.30;;
1569;SDS011;778;50.120;8.698;2023-02-28T06:34:22;4.60;;;4.00;;
1569;SDS011;778;50.120;8.698;2023-02-28T06:36:52;5.47;;;4.00;;
1569;SDS011;778;50.120;8.698;2023-02-28T06:39:21;4.40;;;4.00;;
1569;SDS011;778;50.120;8.698;2023-02-28T06:41:49;5.03;;;4.23;;
1569;SDS011;778;50.120;8.698;2023-02-28T06:44:21;4.33;;;3.83;;
1569;SDS011;778;50.120;8.698;2023-02-28T06:46:51;5.73;;;4.23;;
1569;SDS011;778;50.120;8.698;2023-02-28T06:49:19;7.20;;;4.20;;
1569;SDS011;778;50.120;8.698;2023-02-28T06:51:48;4.47;;;4.07;;
1569;SDS011;778;50.120;8.698;2023-02-28T06:54:18;7.03;;;4.40;;
1569;SDS011;778;50.120;8.698;2023-02-28T06:56:49;11.97;;;4.23;;
1569;SDS011;778;50.120;8.698;2023-02-28T06:59:18;4.80;;;4.07;;
1569;SDS011;778;50.120;8.698;2023-02-28T07:01:46;19.50;;;4.63;;
1569;SDS011;778;50.120;8.698;2023-02-28T07:04:15;3.47;;;3.00;;
1569;SDS011;778;50.120;8.698;2023-02-28T07:06:43;4.80;;;3.30;;
1569;SDS011;778;50.120;8.698;2023-02-28T07:09:12;4.83;;;3.97;;
1569;SDS011;778;50.120;8.698;2023-02-28T07:11:42;4.67;;;3.70;;
1569;SDS011;778;50.120;8.698;2023-02-28T07:14:11;6.20;;;4.03;;
1569;SDS011;778;50.120;8.698;2023-02-28T07:16:39;5.40;;;3.07;;
1569;SDS011;778;50.120;8.698;2023-02-28T07:19:08;4.33;;;3.73;;
1569;SDS011;778;50.120;8.698;2023-02-28T07:21:36;3.17;;;2.80;;
1569;SDS011;778;50.120;8.698;2023-02-28T07:24:05;5.97;;;4.17;;
1569;SDS011;778;50.120;8.698;2023-02-28T07:26:34;3.67;;;3.37;;
1569;SDS011;778;50.120;8.698;2023-02-28T07:29:04;15.57;;;4.60;;
1569;SDS011;778;50.120;8.698;2023-02-28T07:31:32;4.93;;;3.90;;
1569;SDS011;778;50.120;8.698;2023-02-28T07:34:01;5.40;;;4.57;;
1569;SDS011;778;50.120;8.698;2023-02-28T07:36:30;6.57;;;4.20;;
1569;SDS011;778;50.120;8.698;2023-02-28T07:38:58;8.23;;;4.80;;
1569;SDS011;778;50.120;8.698;2023-02-28T07:41:27;5.40;;;4.20;;
1569;SDS011;778;50.120;8.698;2023-02-28T07:43:56;4.10;;;3.70;;
1569;SDS011;778;50.120;8.698;2023-02-28T07:46:27;3.73;;;3.33;;
1569;SDS011;778;50.120;8.698;2023-02-28T07:49:02;4.40;;;4.00;;
1569;SDS011;778;50.120;8.698;2023-02-28T07:51:31;4.73;;;4.13;;
1569;SDS011;778;50.120;8.698;2023-02-28T07:54:00;4.80;;;4.30;;
1569;SDS011;778;50.120;8.698;2023-02-28T07:56:28;5.80;;;4.53;;
1569;SDS011;778;50.120;8.698;2023-02-28T07:58:57;5.43;;;4.00;;
1569;SDS011;778;50.120;8.698;2023-02-28T08:01:27;4.30;;;3.90;;
1569;SDS011;778;50.120;8.698;2023-02-28T08:03:56;5.37;;;3.10;;
1569;SDS011;778;50.120;8.698;2023-02-28T08:06:25;6.50;;;4.40;;
1569;SDS011;778;50.120;8.698;2023-02-28T08:08:53;5.10;;;4.53;;
1569;SDS011;778;50.120;8.698;2023-02-28T08:11:22;7.30;;;4.43;;
1569;SDS011;778;50.120;8.698;2023-02-28T08:13:51;5.33;;;4.73;;
1569;SDS011;778;50.120;8.698;2023-02-28T08:16:19;4.73;;;4.17;;
1569;SDS011;778;50.120;8.698;2023-02-28T08:18:50;7.50;;;5.27;;
1569;SDS011;778;50.120;8.698;2023-02-28T08:21:20;4.10;;;3.80;;
1569;SDS011;778;50.120;8.698;2023-02-28T08:23:49;4.60;;;4.23;;
1569;SDS011;778;50.120;8.698;2023-02-28T08:26:18;4.47;;;4.07;;
1569;SDS011;778;50.120;8.698;2023-02-28T08:28:48;4.03;;;3.43;;
1569;SDS011;778;50.120;8.698;2023-02-28T08:31:17;4.37;;;3.97;;
1569;SDS011;778;50.120;8.698;2023-02-28T08:33:46;4.90;;;3.90;;
1569;SDS011;778;50.120;8.698;2023-02-28T08:36:19;4.07;;;3.17;;
1569;SDS011;778;50.120;8.698;2023-02-28T08:38:47;4.50;;;3.30;;
1569;SDS011;778;50.120;8.698;2023-02-28T08:41:16;3.63;;;3.00;;
1569;SDS011;778;50.120;8.698;2023-02-28T08:43:44;5.00;;;3.70;;
1569;SDS011;778;50.120;8.698;2023-02-28T08:46:13;6.50;;;3.63;;
1569;SDS011;778;50.120;8.698;2023-02-28T08:48:42;4.47;;;3.70;;
1569;SDS011;778;50.120;8.698;2023-02-28T08:51:12;4.23;;;2.97;;
1569;SDS011;778;50.120;8.698;2023-02-28T08:53:46;3.70;;;3.40;;
1569;SDS011;778;50.120;8.698;2023-02-28T08:56:15;6.53;;;3.60;;
1569;SDS011;778;50.120;8.698;2023-02-28T08:58:45;4.57;;;3.73;;
1569;SDS011;778;50.120;8.698;2023-02-28T09:01:16;4.37;;;3.40;;
1569;SDS011;778;50.120;8.698;2023-02-28T09:03:47;4.63;;;3.80;;
1569;SDS011;778;50.120;8.698;2023-02-28T09:06:17;7.73;;;4.43;;
1569;SDS011;778;50.120;8.698;2023-02-28T09:08:49;6.53;;;4.20;;
1569;SDS011;778;50.120;8.698;2023-02-28T09:11:18;3.67;;;3.37;;
1569;SDS011;778;50.120;8.698;2023-02-28T09:13:47;4.40;;;3.80;;
1569;SDS011;778;50.120;8.698;2023-02-28T09:16:15;3.33;;;3.00;;
1569;SDS011;778;50.120;8.698;2023-02-28T09:18:45;4.93;;;4.30;;
1569;SDS011;778;50.120;8.698;2023-02-28T09:21:15;4.70;;;4.10;;
1569;SDS011;778;50.120;8.698;2023-02-28T09:23:45;3.57;;;3.27;;
1569;SDS011;778;50.120;8.698;2023-02-28T09:26:17;6.30;;;3.90;;
1569;SDS011;778;50.120;8.698;2023-02-28T09:28:48;3.87;;;3.40;;
1569;SDS011;778;50.120;8.698;2023-02-28T09:31:18;4.17;;;3.10;;
1569;SDS011;778;50.120;8.698;2023-02-28T09:33:49;8.20;;;3.60;;
1569;SDS011;778;50.120;8.698;2023-02-28T09:36:19;4.27;;;3.87;;
1569;SDS011;778;50.120;8.698;2023-02-28T09:38:51;4.50;;;3.90;;
1569;SDS011;778;50.120;8.698;2023-02-28T09:41:21;3.90;;;3.60;;
1569;SDS011;778;50.120;8.698;2023-02-28T09:43:52;3.80;;;3.50;;
1569;SDS011;778;50.120;8.698;2023-02-28T09:46:31;5.87;;;4.27;;
1569;SDS011;778;50.120;8.698;2023-02-28T09:49:05;5.20;;;4.30;;
1569;SDS011;778;50.120;8.698;2023-02-28T09:51:42;4.67;;;4.13;;
1569;SDS011;778;50.120;8.698;2023-02-28T09:54:21;3.57;;;3.20;;
1569;SDS011;778;50.120;8.698;2023-02-28T09:56:51;6.50;;;3.37;;
1569;SDS011;778;50.120;8.698;2023-02-28T09:59:31;5.80;;;4.73;;
1569;SDS011;778;50.120;8.698;2023-02-28T10:02:16;4.40;;;4.00;;
1569;SDS011;778;50.120;8.698;2023-02-28T10:05:07;4.67;;;3.40;;
1569;SDS011;778;50.120;8.698;2023-02-28T10:07:43;6.50;;;4.30;;
1569;SDS011;778;50.120;8.698;2023-02-28T10:10:27;4.77;;;4.37;;
1569;SDS011;778;50.120;8.698;2023-02-28T10:13:01;5.37;;;4.87;;
1569;SDS011;778;50.120;8.698;2023-02-28T10:15:33;3.30;;;3.00;;
1569;SDS011;778;50.120;8.698;2023-02-28T10:18:04;3.87;;;3.20;;
1569;SDS011;778;50.120;8.698;2023-02-28T10:20:39;5.30;;;4.80;;
1569;SDS011;778;50.120;8.698;2023-02-28T10:23:10;5.30;;;4.77;;
1569;SDS011;778;50.120;8.698;2023-02-28T10:25:47;4.00;;;3.70;;
1569;SDS011;778;50.120;8.698;2023-02-28T10:28:26;4.27;;;3.87;;
1569;SDS011;778;50.120;8.698;2023-02-28T10:30:58;4.93;;;3.23;;
1569;SDS011;778;50.120;8.698;2023-02-28T10:33:28;4.10;;;3.80;;
1569;SDS011;778;50.120;8.698;2023-02-28T10:36:00;4.70;;;3.90;;
1569;SDS011;778;50.120;8.698;2023-02-28T10:38:34;5.10;;;4.63;;
1569;SDS011;778;50.120;8.698;2023-02-28T10:41:06;4.73;;;3.93;;
1569;SDS011;778;50.120;8.698;2023-02-28T10:43:37;4.63;;;4.17;;
1569;SDS011;778;50.120;8.698;2023-02-28T10:46:11;4.40;;;4.00;;
1569;SDS011;778;50.120;8.698;2023-02-28T10:49:00;5.80;;;4.60;;
1569;SDS011;778;50.120;8.698;2023-02-28T10:51:34;4.70;;;4.07;;
1569;SDS011;778;50.120;8.698;2023-02-28T10:54:11;5.13;;;4.40;;
1569;SDS011;778;50.120;8.698;2023-02-28T10:56:45;4.10;;;3.70;;
1569;SDS011;778;50.120;8.698;2023-02-28T10:59:33;5.20;;;4.30;;
1569;SDS011;778;50.120;8.698;2023-02-28T11:02:07;4.90;;;3.83;;
1569;SDS011;778;50.120;8.698;2023-02-28T11:05:02;4.70;;;3.80;;
1569;SDS011;778;50.120;8.698;2023-02-28T11:07:51;9.13;;;4.00;;
1569;SDS011;778;50.120;8.698;2023-02-28T11:10:21;3.40;;;3.10;;
1569;SDS011;778;50.120;8.698;2023-02-28T11:12:57;6.90;;;4.20;;
1569;SDS011;778;50.120;8.698;2023-02-28T11:15:27;5.30;;;4.10;;
1569;SDS011;778;50.120;8.698;2023-02-28T11:17:58;5.10;;;3.77;;
1569;SDS011;778;50.120;8.698;2023-02-28T11:20:30;6.80;;;5.13;;
1569;SDS011;778;50.120;8.698;2023-02-28T11:23:00;4.47;;;4.07;;
1569;SDS011;778;50.120;8.698;2023-02-28T11:25:32;7.33;;;4.67;;
1569;SDS011;778;50.120;8.698;2023-02-28T11:28:04;4.20;;;3.80;;
1569;SDS011;778;50.120;8.698;2023-02-28T11:30:37;6.37;;;5.70;;
1569;SDS011;778;50.120;8.698;2023-02-28T11:33:23;5.73;;;4.83;;
1569;SDS011;778;50.120;8.698;2023-02-28T11:35:57;5.27;;;4.53;;
1569;SDS011;778;50.120;8.698;2023-02-28T11:38:30;6.13;;;4.07;;
1569;SDS011;778;50.120;8.698;2023-02-28T11:41:05;5.40;;;4.07;;
1569;SDS011;778;50.120;8.698;2023-02-28T11:44:05;5.43;;;4.93;;
1569;SDS011;778;50.120;8.698;2023-02-28T11:46:50;3.60;;;2.93;;
1569;SDS011;778;50.120;8.698;2023-02-28T11:52:19;5.50;;;4.80;;
1569;SDS011;778;50.120;8.698;2023-02-28T11:55:04;4.60;;;4.20;;
1569;SDS011;778;50.120;8.698;2023-02-28T11:57:56;5.53;;;4.97;;
1569;SDS011;778;50.120;8.698;2023-02-28T12:01:00;5.50;;;4.80;;
1569;SDS011;778;50.120;8.698;2023-02-28T12:03:49;7.40;;;5.23;;
1569;SDS011;778;50.120;8.698;2023-02-28T12:06:32;5.80;;;4.20;;
1569;SDS011;778;50.120;8.698;2023-02-28T12:09:14;5.17;;;4.30;;
1569;SDS011;778;50.120;8.698;2023-02-28T12:12:05;4.97;;;4.43;;
1569;SDS011;778;50.120;8.698;2023-02-28T12:14:53;5.10;;;4.60;;
1569;SDS011;778;50.120;8.698;2023-02-28T12:17:48;5.50;;;5.00;;
1569;SDS011;778;50.120;8.698;2023-02-28T12:20:30;7.40;;;5.03;;
1569;SDS011;778;50.120;8.698;2023-02-28T12:23:17;6.70;;;6.07;;
1569;SDS011;778;50.120;8.698;2023-02-28T12:26:00;6.87;;;5.30;;
1569;SDS011;778;50.120;8.698;2023-02-28T12:28:38;6.50;;;5.83;;
1569;SDS011;778;50.120;8.698;2023-02-28T12:31:11;6.00;;;5.07;;
1569;SDS011;778;50.120;8.698;2023-02-28T12:33:47;6.70;;;6.07;;
1569;SDS011;778;50.120;8.698;2023-02-28T12:36:20;6.83;;;5.77;;
1569;SDS011;778;50.120;8.698;2023-02-28T12:38:51;6.50;;;5.80;;
1569;SDS011;778;50.120;8.698;2023-02-28T12:41:26;7.53;;;6.23;;
1569;SDS011;778;50.120;8.698;2023-02-28T12:44:04;6.70;;;6.10;;
1569;SDS011;778;50.120;8.698;2023-02-28T12:46:38;5.30;;;4.80;;
1569;SDS011;778;50.120;8.698;2023-02-28T12:49:12;6.70;;;5.37;;
1569;SDS011;778;50.120;8.698;2023-02-28T12:51:44;11.93;;;5.67;;
1569;SDS011;778;50.120;8.698;2023-02-28T12:54:16;6.07;;;5.40;;
1569;SDS011;778;50.120;8.698;2023-02-28T12:56:54;9.80;;;5.87;;
1569;SDS011;778;50.120;8.698;2023-02-28T12:59:32;9.40;;;5.80;;
1569;SDS011;778;50.120;8.698;2023-02-28T13:02:22;5.73;;;5.20;;
1569;SDS011;778;50.120;8.698;2023-02-28T13:06:06;6.57;;;5.90;;
1569;SDS011;778;50.120;8.698;2023-02-28T13:08:57;5.17;;;3.30;;
1569;SDS011;778;50.120;8.698;2023-02-28T13:11:32;5.60;;;4.97;;
1569;SDS011;778;50.120;8.698;2023-02-28T13:14:16;7.80;;;5.20;;
1569;SDS011;778;50.120;8.698;2023-02-28T13:16:54;8.13;;;5.27;;
1569;SDS011;778;50.120;8.698;2023-02-28T13:19:37;6.27;;;5.67;;
1569;SDS011;778;50.120;8.698;2023-02-28T13:22:17;6.97;;;6.30;;
1569;SDS011;778;50.120;8.698;2023-02-28T13:24:49;7.97;;;6.93;;
1569;SDS011;778;50.120;8.698;2023-02-28T13:27:23;7.27;;;5.93;;
1569;SDS011;778;50.120;8.698;2023-02-28T13:33:32;26.13;;;7.60;;
1569;SDS011;778;50.120;8.698;2023-02-28T13:36:22;6.23;;;5.63;;
1569;SDS011;778;50.120;8.698;2023-02-28T13:38:57;6.07;;;5.57;;
1569;SDS011;778;50.120;8.698;2023-02-28T13:41:43;6.10;;;5.60;;
1569;SDS011;778;50.120;8.698;2023-02-28T13:44:15;7.23;;;5.90;;
1569;SDS011;778;50.120;8.698;2023-02-28T13:49:52;6.43;;;5.83;;
1569;SDS011;778;50.120;8.698;2023-02-28T13:52:21;6.70;;;6.17;;
1569;SDS011;778;50.120;8.698;2023-02-28T13:58:01;9.87;;;6.37;;
1569;SDS011;778;50.120;8.698;2023-02-28T14:00:51;6.50;;;5.90;;
1569;SDS011;778;50.120;8.698;2023-02-28T14:03:57;7.30;;;5.50;;
1569;SDS011;778;50.120;8.698;2023-02-28T14:06:46;6.73;;;5.57;;
1569;SDS011;778;50.120;8.698;2023-02-28T14:09:18;6.17;;;5.67;;
1569;SDS011;778;50.120;8.698;2023-02-28T14:11:53;6.50;;;5.80;;
1569;SDS011;778;50.120;8.698;2023-02-28T14:17:23;6.93;;;6.30;;
1569;SDS011;778;50.120;8.698;2023-02-28T14:19:53;7.73;;;6.07;;
1569;SDS011;778;50.120;8.698;2023-02-28T14:22:35;6.30;;;5.73;;
1569;SDS011;778;50.120;8.698;2023-02-28T14:25:22;7.60;;;5.70;;
1569;SDS011;778;50.120;8.698;2023-02-28T14:28:03;7.10;;;6.07;;
1569;SDS011;778;50.120;8.698;2023-02-28T14:31:01;7.10;;;6.40;;
1569;SDS011;778;50.120;8.698;2023-02-28T14:33:45;8.37;;;6.00;;
1569;SDS011;778;50.120;8.698;2023-02-28T14:36:31;7.43;;;6.13;;
1569;SDS011;778;50.120;8.698;2023-02-28T14:39:05;7.87;;;5.97;;
1569;SDS011;778;50.120;8.698;2023-02-28T14:41:38;8.70;;;5.53;;
1569;SDS011;778;50.120;8.698;2023-02-28T14:44:17;8.63;;;6.60;;
1569;SDS011;778;50.120;8.698;2023-02-28T14:46:48;7.30;;;6.13;;
1569;SDS011;778;50.120;8.698;2023-02-28T14:49:20;7.10;;;5.83;;
1569;SDS011;778;50.120;8.698;2023-02-28T14:52:01;13.63;;;7.60;;
1569;SDS011;778;50.120;8.698;2023-02-28T14:54:36;10.70;;;6.93;;
1569;SDS011;778;50.120;8.698;2023-02-28T14:57:05;8.43;;;6.33;;
1569;SDS011;778;50.120;8.698;2023-02-28T14:59:56;14.47;;;6.90;;
1569;SDS011;778;50.120;8.698;2023-02-28T15:02:29;8.13;;;7.40;;
1569;SDS011;778;50.120;8.698;2023-02-28T15:05:01;7.00;;;6.20;;
1569;SDS011;778;50.120;8.698;2023-02-28T15:10:50;6.63;;;5.83;;
1569;SDS011;778;50.120;8.698;2023-02-28T15:13:22;7.63;;;6.70;;
1569;SDS011;778;50.120;8.698;2023-02-28T15:15:57;10.73;;;5.97;;
1569;SDS011;778;50.120;8.698;2023-02-28T15:18:31;9.63;;;7.10;;
1569;SDS011;778;50.120;8.698;2023-02-28T15:21:11;9.40;;;6.77;;
1569;SDS011;778;50.120;8.698;2023-02-28T15:23:44;6.53;;;5.93;;
1569;SDS011;778;50.120;8.698;2023-02-28T15:26:19;6.97;;;6.20;;
1569;SDS011;778;50.120;8.698;2023-02-28T15:28:51;6.37;;;5.67;;
1569;SDS011;778;50.120;8.698;2023-02-28T15:31:32;7.03;;;6.43;;
1569;SDS011;778;50.120;8.698;2023-02-28T15:34:22;8.10;;;6.00;;
1569;SDS011;778;50.120;8.698;2023-02-28T15:40:10;6.63;;;5.87;;
1569;SDS011;778;50.120;8.698;2023-02-28T15:42:43;10.23;;;6.63;;
1569;SDS011;778;50.120;8.698;2023-02-28T15:45:44;6.60;;;6.00;;
1569;SDS011;778;50.120;8.698;2023-02-28T15:48:20;8.93;;;6.73;;
1569;SDS011;778;50.120;8.698;2023-02-28T15:50:51;7.77;;;7.03;;
1569;SDS011;778;50.120;8.698;2023-02-28T15:53:23;10.50;;;6.47;;
1569;SDS011;778;50.120;8.698;2023-02-28T15:55:56;7.30;;;6.60;;
1569;SDS011;778;50.120;8.698;2023-02-28T15:58:28;10.57;;;7.43;;
1569;SDS011;778;50.120;8.698;2023-02-28T16:01:03;7.00;;;5.70;;
1569;SDS011;778;50.120;8.698;2023-02-28T16:03:44;7.43;;;6.73;;
1569;SDS011;778;50.120;8.698;2023-02-28T16:06:35;7.17;;;6.47;;
1569;SDS011;778;50.120;8.698;2023-02-28T16:09:09;11.13;;;6.90;;
1569;SDS011;778;50.120;8.698;2023-02-28T16:11:41;22.57;;;7.53;;
1569;SDS011;778;50.120;8.698;2023-02-28T16:14:14;10.60;;;6.77;;
1569;SDS011;778;50.120;8.698;2023-02-28T16:16:46;8.80;;;6.80;;
1569;SDS011;778;50.120;8.698;2023-02-28T16:19:19;9.57;;;7.00;;
1569;SDS011;778;50.120;8.698;2023-02-28T16:21:48;12.00;;;8.70;;
1569;SDS011;778;50.120;8.698;2023-02-28T16:24:17;7.47;;;6.40;;
1569;SDS011;778;50.120;8.698;2023-02-28T16:26:46;15.47;;;7.33;;
1569;SDS011;778;50.120;8.698;2023-02-28T16:29:19;7.73;;;6.93;;
1569;SDS011;778;50.120;8.698;2023-02-28T16:31:52;11.90;;;7.03;;
1569;SDS011;778;50.120;8.698;2023-02-28T16:34:22;8.00;;;7.20;;
1569;SDS011;778;50.120;8.698;2023-02-28T16:36:51;11.57;;;6.50;;
1569;SDS011;778;50.120;8.698;2023-02-28T16:39:20;8.03;;;6.70;;
1569;SDS011;778;50.120;8.698;2023-02-28T16:41:49;8.57;;;7.23;;